Time;durP1;ratioP1;P1;durP2;ratioP2;P2;SDS_P1;SDS_P2;PMS_P1;PMS_P2;Temp;Humidity;BMP_temperature;BMP_pressure;BME280_temperature;BME280_humidity;BME280_pressure;Samples;Min_cycle;Max_cycle;Signal;HPM_P1;HPM_P2
2022/03/03 00:00:11;;;;;;;;;;;;;;;-147.53;100.00;59759.91;5009545;28;19932;-88
2022/03/03 00:02:36;;;;;;;;;;;;;;;-147.53;100.00;59759.91;5026404;28;19971;-93
2022/03/03 00:05:02;;;;;;;;;;;;;;;-147.53;100.00;59759.91;5006424;28;19928;-88
2022/03/03 00:07:27;;;;;;;;;;;;;;;-147.53;100.00;59759.91;5022775;28;19964;-87
2022/03/03 00:09:52;;;;;;;;;;;;;;;-147.53;100.00;59759.91;5022753;28;19944;-89
2022/03/03 00:12:18;;;;;;;;;;;;;;;-147.53;100.00;59759.91;5022482;28;19917;-90
2022/03/03 00:14:43;;;;;;;;;;;;;;;-147.53;100.00;59759.91;5023011;28;19921;-88
2022/03/03 00:17:08;;;;;;;;;;;;;;;-147.53;100.00;59759.91;5024516;28;19940;-87
2022/03/03 00:19:34;;;;;;;;;;;;;;;-147.53;100.00;59759.91;5026481;28;19972;-88
2022/03/03 00:21:59;;;;;;;;;;;;;;;-147.53;100.00;59759.91;5025878;28;19924;-88
2022/03/03 00:24:25;;;;;;;;;;;;;;;-147.53;100.00;59759.91;5026261;28;19974;-87
2022/03/03 00:26:50;;;;;;;;;;;;;;;-147.53;100.00;59759.91;5028504;28;19918;-89
2022/03/03 00:29:20;;;;;;;;;;;;;;;-147.53;100.00;59759.91;5027320;28;19926;-89
2022/03/03 00:31:46;;;;;;;;;;;;;;;-147.53;100.00;59759.91;5007246;28;20010;-88
2022/03/03 00:34:11;;;;;;;;;;;;;;;-147.53;100.00;59759.91;5016030;28;19916;-87
2022/03/03 00:36:37;;;;;;;;;;;;;;;-147.53;100.00;59759.91;5032071;28;20366;-88
2022/03/03 00:39:03;;;;;;;;;;;;;;;-147.53;100.00;59759.91;5022385;28;19965;-87
2022/03/03 00:41:29;;;;;;;;;;;;;;;-147.53;100.00;59759.91;5019210;28;19929;-88
2022/03/03 00:43:54;;;;;;;;;;;;;;;-147.53;100.00;59759.91;5026467;28;19917;-87
2022/03/03 00:46:25;;;;;;;;;;;;;;;-147.53;100.00;59759.91;5028351;28;19953;-87
2022/03/03 00:48:50;;;;;;;;;;;;;;;-147.53;100.00;59759.91;5028322;28;19925;-88
2022/03/03 00:51:16;;;;;;;;;;;;;;;-147.53;100.00;59759.91;5028333;28;19918;-87
2022/03/03 00:53:41;;;;;;;;;;;;;;;-147.53;100.00;59759.91;5027300;28;19930;-89
2022/03/03 00:56:06;;;;;;;;;;;;;;;-147.53;100.00;59759.91;5028374;28;19922;-87
2022/03/03 00:58:32;;;;;;;;;;;;;;;-147.53;100.00;59759.91;5044282;28;19901;-86
2022/03/03 01:00:57;;;;;;;;;;;;;;;-147.53;100.00;59759.91;5043302;28;19953;-87
2022/03/03 01:03:22;;;;;;;;;;;;;;;-147.53;100.00;59759.91;5043068;28;19928;-88
2022/03/03 01:05:47;;;;;;;;;;;;;;;-147.53;100.00;59759.91;5043605;28;19925;-86
2022/03/03 01:08:14;;;;;;;;;;;;;;;-147.53;100.00;59759.91;5044304;28;19930;-88
2022/03/03 01:10:40;;;;;;;;;;;;;;;-147.53;100.00;59759.91;5043790;28;19918;-88
2022/03/03 01:13:06;;;;;;;;;;;;;;;-147.53;100.00;59759.91;5044105;28;19949;-88
2022/03/03 01:15:32;;;;;;;;;;;;;;;-147.53;100.00;59759.91;5043799;28;19929;-88
2022/03/03 01:17:57;;;;;;;;;;;;;;;-147.53;100.00;59759.91;5044068;28;19922;-87
2022/03/03 01:20:24;;;;;;;;;;;;;;;-147.53;100.00;59759.91;5043524;28;19933;-88
2022/03/03 01:22:49;;;;;;;;;;;;;;;-147.53;100.00;59759.91;5029406;28;19914;-87
2022/03/03 01:25:14;;;;;;;;;;;;;;;-147.53;100.00;59759.91;5044557;28;19929;-88
2022/03/03 01:27:40;;;;;;;;;;;;;;;-147.53;100.00;59759.91;5028247;28;19975;-88
2022/03/03 01:30:06;;;;;;;;;;;;;;;-147.53;100.00;59759.91;5044930;28;19968;-87
2022/03/03 01:32:31;;;;;;;;;;;;;;;-147.53;100.00;59759.91;5044774;28;19936;-87
2022/03/03 01:34:56;;;;;;;;;;;;;;;-147.53;100.00;59759.91;5043672;28;19960;-88
2022/03/03 01:37:22;;;;;;;;;;;;;;;-147.53;100.00;59759.91;5043071;28;20038;-85
2022/03/03 01:39:47;;;;;;;;;;;;;;;-147.53;100.00;59759.91;5043771;28;19921;-87
2022/03/03 01:42:13;;;;;;;;;;;;;;;-147.53;100.00;59759.91;5043792;28;19917;-88
2022/03/03 01:44:41;;;;;;;;;;;;;;;-147.53;100.00;59759.91;5043470;28;19921;-87
2022/03/03 01:47:14;;;;;;;;;;;;;;;-147.53;100.00;59759.91;5043668;28;19916;-87
2022/03/03 01:49:39;;;;;;;;;;;;;;;-147.53;100.00;59759.91;5043063;28;19913;-87
2022/03/03 01:52:05;;;;;;;;;;;;;;;-147.53;100.00;59759.91;5043571;28;19918;-88
2022/03/03 01:54:30;;;;;;;;;;;;;;;-147.53;100.00;59759.91;5049327;28;19932;-88
2022/03/03 01:56:55;;;;;;;;;;;;;;;-147.53;100.00;59759.91;5061512;28;19985;-88
2022/03/03 01:59:21;;;;;;;;;;;;;;;-147.53;100.00;59759.91;5045414;28;19932;-87
2022/03/03 02:01:46;;;;;;;;;;;;;;;-147.53;100.00;59759.91;5062266;28;19924;-87
2022/03/03 02:04:11;;;;;;;;;;;;;;;-147.53;100.00;59759.91;5061808;28;19932;-87
2022/03/03 02:06:37;;;;;;;;;;;;;;;-147.53;100.00;59759.91;5061941;28;20012;-87
2022/03/03 02:09:02;;;;;;;;;;;;;;;-147.53;100.00;59759.91;5046254;28;19901;-87
2022/03/03 02:11:30;;;;;;;;;;;;;;;-147.53;100.00;59759.91;5061740;28;19921;-87
2022/03/03 02:13:56;;;;;;;;;;;;;;;-147.53;100.00;59759.91;5061566;28;19970;-87
2022/03/03 02:16:22;;;;;;;;;;;;;;;-147.53;100.00;59759.91;5061542;28;19918;-89
2022/03/03 02:18:48;;;;;;;;;;;;;;;-147.53;100.00;59759.91;5061726;28;20371;-89
2022/03/03 02:21:14;;;;;;;;;;;;;;;-147.53;100.00;59759.91;5061861;28;19975;-88
2022/03/03 02:23:39;;;;;;;;;;;;;;;-147.53;100.00;59759.91;5062370;28;19939;-89
2022/03/03 02:26:06;;;;;;;;;;;;;;;-147.53;100.00;59759.91;5061240;28;19917;-88
2022/03/03 02:28:32;;;;;;;;;;;;;;;-147.53;100.00;59759.91;5046130;28;20434;-88
2022/03/03 02:30:58;;;;;;;;;;;;;;;-147.53;100.00;59759.91;5062134;28;19921;-88
2022/03/03 02:33:23;;;;;;;;;;;;;;;-147.53;100.00;59759.91;5061057;28;19928;-88
2022/03/03 02:35:48;;;;;;;;;;;;;;;-147.53;100.00;59759.91;5061773;28;20000;-88
2022/03/03 02:38:14;;;;;;;;;;;;;;;-147.53;100.00;59759.91;5062300;28;19925;-89
2022/03/03 02:40:39;;;;;;;;;;;;;;;-147.53;100.00;59759.91;5061663;28;19924;-89
2022/03/03 02:43:06;;;;;;;;;;;;;;;-147.53;100.00;59759.91;5061727;28;19992;-88
2022/03/03 02:45:31;;;;;;;;;;;;;;;-147.53;100.00;59759.91;5060925;28;20333;-88
2022/03/03 02:47:56;;;;;;;;;;;;;;;-147.53;100.00;59759.91;5061853;28;19921;-88
2022/03/03 02:50:25;;;;;;;;;;;;;;;-147.53;100.00;59759.91;5060826;28;19956;-88
2022/03/03 02:52:50;;;;;;;;;;;;;;;-147.53;100.00;59759.91;5061628;28;19940;-89
2022/03/03 02:55:16;;;;;;;;;;;;;;;-147.53;100.00;59759.91;5062224;28;20313;-88
2022/03/03 02:57:53;;;;;;;;;;;;;;;-147.53;100.00;59759.91;5061915;28;19917;-89
2022/03/03 03:00:19;;;;;;;;;;;;;;;-147.53;100.00;59759.91;5061654;28;19917;-88
2022/03/03 03:02:44;;;;;;;;;;;;;;;-147.53;100.00;59759.91;5061601;28;20012;-88
2022/03/03 03:05:09;;;;;;;;;;;;;;;-147.53;100.00;59759.91;5060956;28;19920;-89
2022/03/03 03:07:35;;;;;;;;;;;;;;;-147.53;100.00;59759.91;5062081;28;19920;-88
2022/03/03 03:10:00;;;;;;;;;;;;;;;-147.53;100.00;59759.91;5062026;28;19937;-89
2022/03/03 03:12:26;;;;;;;;;;;;;;;-147.53;100.00;59759.91;5061416;28;20252;-89
2022/03/03 03:14:51;;;;;;;;;;;;;;;-147.53;100.00;59759.91;5061182;28;19940;-88
2022/03/03 03:17:16;;;;;;;;;;;;;;;-147.53;100.00;59759.91;5062327;28;20035;-88
2022/03/03 03:19:42;;;;;;;;;;;;;;;-147.53;100.00;59759.91;5061825;28;20259;-88
2022/03/03 03:22:07;;;;;;;;;;;;;;;-147.53;100.00;59759.91;5063318;28;19917;-88
2022/03/03 03:24:32;;;;;;;;;;;;;;;-147.53;100.00;59759.91;5062795;28;19925;-88
2022/03/03 03:26:57;;;;;;;;;;;;;;;-147.53;100.00;59759.91;5064146;28;19965;-88
2022/03/03 03:29:23;;;;;;;;;;;;;;;-147.53;100.00;59759.91;5063142;28;19931;-89
2022/03/03 03:31:48;;;;;;;;;;;;;;;-147.53;100.00;59759.91;5060657;28;19917;-88
2022/03/03 03:34:13;;;;;;;;;;;;;;;-147.53;100.00;59759.91;5055736;28;20067;-88
2022/03/03 03:36:39;;;;;;;;;;;;;;;-147.53;100.00;59759.91;5054990;28;20007;-89
2022/03/03 03:39:04;;;;;;;;;;;;;;;-147.53;100.00;59759.91;5039456;28;19905;-88
2022/03/03 03:41:30;;;;;;;;;;;;;;;-147.53;100.00;59759.91;5055344;28;19917;-88
2022/03/03 03:43:55;;;;;;;;;;;;;;;-147.53;100.00;59759.91;5054792;28;19917;-88
2022/03/03 03:46:20;;;;;;;;;;;;;;;-147.53;100.00;59759.91;5054656;28;20024;-89
2022/03/03 03:48:45;;;;;;;;;;;;;;;-147.53;100.00;59759.91;5040008;28;19940;-89
2022/03/03 03:51:11;;;;;;;;;;;;;;;-147.53;100.00;59759.91;5054807;28;19918;-88
2022/03/03 03:53:36;;;;;;;;;;;;;;;-147.53;100.00;59759.91;5059282;28;19917;-89
2022/03/03 03:56:01;;;;;;;;;;;;;;;-147.53;100.00;59759.91;5059123;28;19923;-89
2022/03/03 03:58:26;;;;;;;;;;;;;;;-147.53;100.00;59759.91;5059254;28;20008;-88
2022/03/03 04:00:52;;;;;;;;;;;;;;;-147.53;100.00;59759.91;5058718;28;19928;-88
2022/03/03 04:03:17;;;;;;;;;;;;;;;-147.53;100.00;59759.91;5059016;28;19917;-88
2022/03/03 04:05:42;;;;;;;;;;;;;;;-147.53;100.00;59759.91;5058762;28;20432;-88
2022/03/03 04:08:07;;;;;;;;;;;;;;;-147.53;100.00;59759.91;5058919;28;20010;-88
2022/03/03 04:10:33;;;;;;;;;;;;;;;-147.53;100.00;59759.91;5058875;28;19928;-88
2022/03/03 04:12:58;;;;;;;;;;;;;;;-147.53;100.00;59759.91;5058458;28;19980;-88
2022/03/03 04:15:23;;;;;;;;;;;;;;;-147.53;100.00;59759.91;5058819;28;20275;-88
2022/03/03 04:17:48;;;;;;;;;;;;;;;-147.53;100.00;59759.91;5058263;28;19905;-88
2022/03/03 04:20:14;;;;;;;;;;;;;;;-147.53;100.00;59759.91;5059213;28;19957;-88
2022/03/03 04:22:40;;;;;;;;;;;;;;;-147.53;100.00;59759.91;5058677;28;19962;-88
2022/03/03 04:25:06;;;;;;;;;;;;;;;-147.53;100.00;59759.91;5059325;28;19922;-88
2022/03/03 04:27:31;;;;;;;;;;;;;;;-147.53;100.00;59759.91;5058364;28;19943;-88
2022/03/03 04:29:56;;;;;;;;;;;;;;;-147.53;100.00;59759.91;5058170;28;19912;-88
2022/03/03 04:32:21;;;;;;;;;;;;;;;-147.53;100.00;59759.91;5058759;28;19964;-88
2022/03/03 04:34:47;;;;;;;;;;;;;;;-147.53;100.00;59759.91;5057667;28;19921;-88
2022/03/03 04:37:12;;;;;;;;;;;;;;;-147.53;100.00;59759.91;5057290;28;19925;-89
2022/03/03 04:39:37;;;;;;;;;;;;;;;-147.53;100.00;59759.91;5058479;28;19927;-88
2022/03/03 04:42:02;;;;;;;;;;;;;;;-147.53;100.00;59759.91;5058293;28;19982;-88
2022/03/03 04:44:28;;;;;;;;;;;;;;;-147.53;100.00;59759.91;5058890;28;20020;-88
2022/03/03 04:46:53;;;;;;;;;;;;;;;-147.53;100.00;59759.91;5058370;28;19909;-88
2022/03/03 04:49:19;;;;;;;;;;;;;;;-147.53;100.00;59759.91;5058739;28;19920;-88
2022/03/03 04:51:44;;;;;;;;;;;;;;;-147.53;100.00;59759.91;5040837;28;19923;-88
2022/03/03 04:54:10;;;;;;;;;;;;;;;-147.53;100.00;59759.91;5059500;28;19924;-89
2022/03/03 04:56:35;;;;;;;;;;;;;;;-147.53;100.00;59759.91;5044314;28;19921;-88
2022/03/03 04:59:01;;;;;;;;;;;;;;;-147.53;100.00;59759.91;5044414;28;19921;-87
2022/03/03 05:01:26;;;;;;;;;;;;;;;-147.53;100.00;59759.91;5044302;28;20341;-88
2022/03/03 05:03:51;;;;;;;;;;;;;;;-147.53;100.00;59759.91;5043723;28;19932;-88
2022/03/03 05:06:17;;;;;;;;;;;;;;;-147.53;100.00;59759.91;5043838;28;19920;-88
2022/03/03 05:08:42;;;;;;;;;;;;;;;-147.53;100.00;59759.91;5043180;28;19917;-88
2022/03/03 05:11:08;;;;;;;;;;;;;;;-147.53;100.00;59759.91;5042778;28;19961;-88
2022/03/03 05:13:33;;;;;;;;;;;;;;;-147.53;100.00;59759.91;5043544;28;19921;-88
2022/03/03 05:15:59;;;;;;;;;;;;;;;-147.53;100.00;59759.91;5043706;28;20321;-87
2022/03/03 05:18:24;;;;;;;;;;;;;;;-147.53;100.00;59759.91;5060393;28;19928;-87
2022/03/03 05:20:49;;;;;;;;;;;;;;;-147.53;100.00;59759.91;5060868;28;19932;-87
2022/03/03 05:23:14;;;;;;;;;;;;;;;-147.53;100.00;59759.91;5042534;28;20468;-88
2022/03/03 05:25:39;;;;;;;;;;;;;;;-147.53;100.00;59759.91;5041128;28;19917;-87
2022/03/03 05:28:05;;;;;;;;;;;;;;;-147.53;100.00;59759.91;5042646;28;19921;-88
2022/03/03 05:30:30;;;;;;;;;;;;;;;-147.53;100.00;59759.91;5042502;28;19927;-88
2022/03/03 05:32:57;;;;;;;;;;;;;;;-147.53;100.00;59759.91;5042568;28;19921;-88
2022/03/03 05:35:22;;;;;;;;;;;;;;;-147.53;100.00;59759.91;5041801;28;20330;-87
2022/03/03 05:37:48;;;;;;;;;;;;;;;-147.53;100.00;59759.91;5042380;28;19924;-88
2022/03/03 05:40:14;;;;;;;;;;;;;;;-147.53;100.00;59759.91;5042775;28;19928;-87
2022/03/03 05:42:39;;;;;;;;;;;;;;;-147.53;100.00;59759.91;5041413;28;19927;-87
2022/03/03 05:45:04;;;;;;;;;;;;;;;-147.53;100.00;59759.91;5042234;28;19917;-87
2022/03/03 05:47:30;;;;;;;;;;;;;;;-147.53;100.00;59759.91;5060628;28;20358;-88
2022/03/03 05:49:56;;;;;;;;;;;;;;;-147.53;100.00;59759.91;5043220;28;19921;-86
2022/03/03 05:52:21;;;;;;;;;;;;;;;-147.53;100.00;59759.91;5042942;28;19911;-88
2022/03/03 05:54:46;;;;;;;;;;;;;;;-147.53;100.00;59759.91;5042639;28;19956;-88
2022/03/03 05:57:21;;;;;;;;;;;;;;;-147.53;100.00;59759.91;5041750;28;19925;-88
2022/03/03 05:59:48;;;;;;;;;;;;;;;-147.53;100.00;59759.91;5059610;28;20278;-88
2022/03/03 06:02:13;;;;;;;;;;;;;;;-147.53;100.00;59759.91;5042022;28;19921;-86
2022/03/03 06:04:39;;;;;;;;;;;;;;;-147.53;100.00;59759.91;5043268;28;19928;-86
2022/03/03 06:07:08;;;;;;;;;;;;;;;-147.53;100.00;59759.91;5043308;28;19982;-85
2022/03/03 06:09:35;;;;;;;;;;;;;;;-147.53;100.00;59759.91;5042784;28;19924;-87
2022/03/03 06:12:13;;;;;;;;;;;;;;;-147.53;100.00;59759.91;5064963;28;19913;-86
2022/03/03 06:14:47;;;;;;;;;;;;;;;-147.53;100.00;59759.91;5041498;28;19901;-87
2022/03/03 06:17:13;;;;;;;;;;;;;;;-147.53;100.00;59759.91;5047897;28;19939;-87
2022/03/03 06:19:42;;;;;;;;;;;;;;;-147.53;100.00;59759.91;5042614;28;19947;-86
2022/03/03 06:22:10;;;;;;;;;;;;;;;-147.53;100.00;59759.91;5041886;28;19960;-87
2022/03/03 06:24:36;;;;;;;;;;;;;;;-147.53;100.00;59759.91;5042511;28;19917;-87
2022/03/03 06:27:01;;;;;;;;;;;;;;;-147.53;100.00;59759.91;5042765;28;20384;-87
2022/03/03 06:29:34;;;;;;;;;;;;;;;-147.53;100.00;59759.91;5043509;28;19923;-86
2022/03/03 06:32:01;;;;;;;;;;;;;;;-147.53;100.00;59759.91;5058798;28;20400;-87
2022/03/03 06:34:26;;;;;;;;;;;;;;;-147.53;100.00;59759.91;5058174;28;20001;-88
2022/03/03 06:36:51;;;;;;;;;;;;;;;-147.53;100.00;59759.91;5041399;28;19897;-86
2022/03/03 06:39:16;;;;;;;;;;;;;;;-147.53;100.00;59759.91;5041750;28;19917;-85
2022/03/03 06:41:42;;;;;;;;;;;;;;;-147.53;100.00;59759.91;5040990;28;19917;-87
2022/03/03 06:44:07;;;;;;;;;;;;;;;-147.53;100.00;59759.91;5059416;28;19921;-86
2022/03/03 06:46:33;;;;;;;;;;;;;;;-147.53;100.00;59759.91;5059197;28;19928;-86
2022/03/03 06:49:09;;;;;;;;;;;;;;;-147.53;100.00;59759.91;5036573;28;19925;-87
2022/03/03 06:51:39;;;;;;;;;;;;;;;-147.53;100.00;59759.91;5023184;28;19928;-88
2022/03/03 06:54:05;;;;;;;;;;;;;;;-147.53;100.00;59759.91;5023152;28;19928;-88
2022/03/03 06:56:30;;;;;;;;;;;;;;;-147.53;100.00;59759.91;5039401;28;19911;-84
2022/03/03 06:59:00;;;;;;;;;;;;;;;-147.53;100.00;59759.91;5022286;28;20366;-87
2022/03/03 07:01:28;;;;;;;;;;;;;;;-147.53;100.00;59759.91;5039117;28;20021;-84
2022/03/03 07:03:54;;;;;;;;;;;;;;;-147.53;100.00;59759.91;5028713;28;19921;-87
2022/03/03 07:06:20;;;;;;;;;;;;;;;-147.53;100.00;59759.91;5038925;28;19917;-87
2022/03/03 07:08:46;;;;;;;;;;;;;;;-147.53;100.00;59759.91;5028958;28;20004;-87
2022/03/03 07:11:11;;;;;;;;;;;;;;;-147.53;100.00;59759.91;5021913;28;19917;-88
2022/03/03 07:13:38;;;;;;;;;;;;;;;-147.53;100.00;59759.91;5039270;28;19921;-89
2022/03/03 07:16:12;;;;;;;;;;;;;;;-147.53;100.00;59759.91;5022814;28;19917;-88
2022/03/03 07:18:40;;;;;;;;;;;;;;;-147.53;100.00;59759.91;5038930;28;19939;-86
2022/03/03 07:21:10;;;;;;;;;;;;;;;-147.53;100.00;59759.91;5022626;28;19905;-88
2022/03/03 07:23:39;;;;;;;;;;;;;;;-147.53;100.00;59759.91;5020694;28;20378;-86
2022/03/03 07:26:06;;;;;;;;;;;;;;;-147.53;100.00;59759.91;5021634;28;20293;-88
2022/03/03 07:28:32;;;;;;;;;;;;;;;-147.53;100.00;59759.91;5023506;28;20325;-90
2022/03/03 07:30:59;;;;;;;;;;;;;;;-147.53;100.00;59759.91;5058071;28;19970;-88
2022/03/03 07:33:27;;;;;;;;;;;;;;;-147.53;100.00;59759.91;5058693;28;19975;-87
2022/03/03 07:35:56;;;;;;;;;;;;;;;-147.53;100.00;59759.91;5061130;28;19925;-89
2022/03/03 07:38:25;;;;;;;;;;;;;;;-147.53;100.00;59759.91;5043974;28;19927;-88
2022/03/03 07:40:51;;;;;;;;;;;;;;;-147.53;100.00;59759.91;5060285;28;19917;-89
2022/03/03 07:43:17;;;;;;;;;;;;;;;-147.53;100.00;59759.91;5058285;28;19897;-86
2022/03/03 07:45:43;;;;;;;;;;;;;;;-147.53;100.00;59759.91;5041806;28;19917;-87
2022/03/03 07:48:10;;;;;;;;;;;;;;;-147.53;100.00;59759.91;5040879;28;19960;-83
2022/03/03 07:50:39;;;;;;;;;;;;;;;-147.53;100.00;59759.91;5028090;28;19943;-88
2022/03/03 07:53:10;;;;;;;;;;;;;;;-147.53;100.00;59759.91;5062708;28;20007;-88
2022/03/03 07:55:46;;;;;;;;;;;;;;;-147.53;100.00;59759.91;5049795;28;19982;-87
2022/03/03 07:58:15;;;;;;;;;;;;;;;-147.53;100.00;59759.91;5044230;28;19952;-88
2022/03/03 08:00:46;;;;;;;;;;;;;;;-147.53;100.00;59759.91;5045623;28;19921;-89
2022/03/03 08:03:13;;;;;;;;;;;;;;;-147.53;100.00;59759.91;5042478;28;19939;-88
2022/03/03 08:05:39;;;;;;;;;;;;;;;-147.53;100.00;59759.91;5039684;28;19928;-88
2022/03/03 08:08:06;;;;;;;;;;;;;;;-147.53;100.00;59759.91;5040597;28;19960;-86
2022/03/03 08:10:37;;;;;;;;;;;;;;;-147.53;100.00;59759.91;5057478;28;19952;-90
2022/03/03 08:13:02;;;;;;;;;;;;;;;-147.53;100.00;59759.91;5059060;28;19921;-86
2022/03/03 08:15:28;;;;;;;;;;;;;;;-147.53;100.00;59759.91;5041133;28;20019;-88
2022/03/03 08:17:54;;;;;;;;;;;;;;;-147.53;100.00;59759.91;5040822;28;19927;-87
2022/03/03 08:20:19;;;;;;;;;;;;;;;-147.53;100.00;59759.91;5040452;28;19905;-86
2022/03/03 08:22:48;;;;;;;;;;;;;;;-147.53;100.00;59759.91;5040901;28;19913;-88
2022/03/03 08:25:14;;;;;;;;;;;;;;;-147.53;100.00;59759.91;5041017;28;19970;-86
2022/03/03 08:27:40;;;;;;;;;;;;;;;-147.53;100.00;59759.91;5039368;28;19912;-88
2022/03/03 08:30:06;;;;;;;;;;;;;;;-147.53;100.00;59759.91;5039802;28;20357;-90
2022/03/03 08:32:37;;;;;;;;;;;;;;;-147.53;100.00;59759.91;5039541;28;19923;-89
2022/03/03 08:35:09;;;;;;;;;;;;;;;-147.53;100.00;59759.91;5057846;28;20011;-90
2022/03/03 08:37:36;;;;;;;;;;;;;;;-147.53;100.00;59759.91;5059330;28;19916;-87
2022/03/03 08:40:05;;;;;;;;;;;;;;;-147.53;100.00;59759.91;5045328;28;19916;-89
2022/03/03 08:42:34;;;;;;;;;;;;;;;-147.53;100.00;59759.91;5044552;28;19912;-86
2022/03/03 08:45:02;;;;;;;;;;;;;;;-147.53;100.00;59759.91;5046172;28;19916;-85
2022/03/03 08:47:28;;;;;;;;;;;;;;;-147.53;100.00;59759.91;5050290;28;19920;-87
2022/03/03 08:50:02;;;;;;;;;;;;;;;-147.53;100.00;59759.91;5065241;28;19959;-85
2022/03/03 08:52:28;;;;;;;;;;;;;;;-147.53;100.00;59759.91;5044975;28;19968;-86
2022/03/03 08:54:54;;;;;;;;;;;;;;;-147.53;100.00;59759.91;5044335;28;19931;-86
2022/03/03 08:57:19;;;;;;;;;;;;;;;-147.53;100.00;59759.91;5059453;28;19917;-86
2022/03/03 08:59:44;;;;;;;;;;;;;;;-147.53;100.00;59759.91;5043507;28;19921;-87
2022/03/03 09:02:11;;;;;;;;;;;;;;;-147.53;100.00;59759.91;5043464;28;19909;-86
2022/03/03 09:04:36;;;;;;;;;;;;;;;-147.53;100.00;59759.91;5060978;28;19992;-85
2022/03/03 09:07:01;;;;;;;;;;;;;;;-147.53;100.00;59759.91;5058588;28;20066;-86
2022/03/03 09:09:27;;;;;;;;;;;;;;;-147.53;100.00;59759.91;5061721;28;20293;-86
2022/03/03 09:11:52;;;;;;;;;;;;;;;-147.53;100.00;59759.91;5060323;28;20490;-86
2022/03/03 09:14:18;;;;;;;;;;;;;;;-147.53;100.00;59759.91;5042172;28;19927;-88
2022/03/03 09:16:44;;;;;;;;;;;;;;;-147.53;100.00;59759.91;5060546;28;19921;-87
2022/03/03 09:19:09;;;;;;;;;;;;;;;-147.53;100.00;59759.91;5042876;28;19901;-88
2022/03/03 09:21:34;;;;;;;;;;;;;;;-147.53;100.00;59759.91;5059057;28;19974;-89
2022/03/03 09:24:00;;;;;;;;;;;;;;;-147.53;100.00;59759.91;5042895;28;19972;-86
2022/03/03 09:26:27;;;;;;;;;;;;;;;-147.53;100.00;59759.91;5062063;28;19921;-89
2022/03/03 09:28:53;;;;;;;;;;;;;;;-147.53;100.00;59759.91;5062049;28;19924;-87
2022/03/03 09:31:18;;;;;;;;;;;;;;;-147.53;100.00;59759.91;5060398;28;19917;-88
2022/03/03 09:33:43;;;;;;;;;;;;;;;-147.53;100.00;59759.91;5060698;28;19921;-85
2022/03/03 09:36:11;;;;;;;;;;;;;;;-147.53;100.00;59759.91;5046695;28;19932;-89
2022/03/03 09:38:37;;;;;;;;;;;;;;;-147.53;100.00;59759.91;5064368;28;19921;-88
2022/03/03 09:41:02;;;;;;;;;;;;;;;-147.53;100.00;59759.91;5066414;28;19924;-87
2022/03/03 09:43:28;;;;;;;;;;;;;;;-147.53;100.00;59759.91;5061877;28;19916;-90
2022/03/03 09:45:53;;;;;;;;;;;;;;;-147.53;100.00;59759.91;5044120;28;19972;-90
2022/03/03 09:48:21;;;;;;;;;;;;;;;-147.53;100.00;59759.91;5059048;28;20024;-88
2022/03/03 09:50:46;;;;;;;;;;;;;;;-147.53;100.00;59759.91;5059349;28;19917;-89
2022/03/03 09:53:13;;;;;;;;;;;;;;;-147.53;100.00;59759.91;5060409;28;19917;-89
2022/03/03 09:55:40;;;;;;;;;;;;;;;-147.53;100.00;59759.91;5059480;28;20429;-88
2022/03/03 09:58:06;;;;;;;;;;;;;;;-147.53;100.00;59759.91;5059450;28;19938;-89
2022/03/03 10:00:36;;;;;;;;;;;;;;;-147.53;100.00;59759.91;5027744;28;19905;-90
2022/03/03 10:03:10;;;;;;;;;;;;;;;-147.53;100.00;59759.91;5064634;28;19925;-88
2022/03/03 10:05:39;;;;;;;;;;;;;;;-147.53;100.00;59759.91;5043124;28;19960;-86
2022/03/03 10:08:06;;;;;;;;;;;;;;;-147.53;100.00;59759.91;5061901;28;19921;-87
2022/03/03 10:10:32;;;;;;;;;;;;;;;-147.53;100.00;59759.91;5062450;28;19921;-88
2022/03/03 10:12:58;;;;;;;;;;;;;;;-147.53;100.00;59759.91;5043454;28;19927;-89
2022/03/03 10:15:25;;;;;;;;;;;;;;;-147.53;100.00;59759.91;5061571;28;19935;-89
2022/03/03 10:17:55;;;;;;;;;;;;;;;-147.53;100.00;59759.91;5044046;28;19951;-92
2022/03/03 10:20:25;;;;;;;;;;;;;;;-147.53;100.00;59759.91;5062131;28;19917;-86
2022/03/03 10:23:00;;;;;;;;;;;;;;;-147.53;100.00;59759.91;5058641;28;19972;-88
2022/03/03 10:25:30;;;;;;;;;;;;;;;-147.53;100.00;59759.91;5042050;28;19927;-87
2022/03/03 10:27:55;;;;;;;;;;;;;;;-147.53;100.00;59759.91;5057784;28;19956;-89
2022/03/03 10:30:21;;;;;;;;;;;;;;;-147.53;100.00;59759.91;5059473;28;19924;-88
2022/03/03 10:32:47;;;;;;;;;;;;;;;-147.53;100.00;59759.91;5049028;28;20317;-88
2022/03/03 10:35:17;;;;;;;;;;;;;;;-147.53;100.00;59759.91;5055994;28;19967;-88
2022/03/03 10:37:43;;;;;;;;;;;;;;;-147.53;100.00;59759.91;5058965;28;19990;-88
2022/03/03 10:40:09;;;;;;;;;;;;;;;-147.53;100.00;59759.91;5042500;28;20328;-86
2022/03/03 10:42:37;;;;;;;;;;;;;;;-147.53;100.00;59759.91;5057243;28;20007;-89
2022/03/03 10:45:22;;;;;;;;;;;;;;;-147.53;100.00;59759.91;5041571;28;19916;-89
2022/03/03 10:48:08;;;;;;;;;;;;;;;-147.53;100.00;59759.91;5058668;28;19921;-90
2022/03/03 10:51:06;;;;;;;;;;;;;;;-147.53;100.00;59759.91;5059311;28;19920;-91
2022/03/03 10:53:39;;;;;;;;;;;;;;;-147.53;100.00;59759.91;5060031;28;19921;-90
2022/03/03 10:56:06;;;;;;;;;;;;;;;-147.53;100.00;59759.91;5039221;28;19912;-89
2022/03/03 10:58:53;;;;;;;;;;;;;;;-147.53;100.00;59759.91;5039530;28;19921;-92
2022/03/03 11:01:40;;;;;;;;;;;;;;;-147.53;100.00;59759.91;5056297;28;19909;-94
2022/03/03 11:06:33;;;;;;;;;;;;;;;-147.53;100.00;59759.91;5055169;28;19913;-90
2022/03/03 11:09:07;;;;;;;;;;;;;;;-147.53;100.00;59759.91;5052861;28;19920;-90
2022/03/03 11:11:33;;;;;;;;;;;;;;;-147.53;100.00;59759.91;5054903;28;20015;-88
2022/03/03 11:13:58;;;;;;;;;;;;;;;-147.53;100.00;59759.91;5053245;28;19952;-88
2022/03/03 11:16:25;;;;;;;;;;;;;;;-147.53;100.00;59759.91;5050067;28;19927;-87
2022/03/03 11:18:54;;;;;;;;;;;;;;;-147.53;100.00;59759.91;5061252;28;20020;-91
2022/03/03 11:21:22;;;;;;;;;;;;;;;-147.53;100.00;59759.91;5045068;28;19925;-88
2022/03/03 11:23:52;;;;;;;;;;;;;;;-147.53;100.00;59759.91;5057394;28;20207;-88
2022/03/03 11:26:24;;;;;;;;;;;;;;;-147.53;100.00;59759.91;5047730;28;22646;-87
2022/03/03 11:28:57;;;;;;;;;;;;;;;-147.53;100.00;59759.91;5052113;28;20011;-85
2022/03/03 11:31:28;;;;;;;;;;;;;;;-147.53;100.00;59759.91;5044528;28;19905;-87
2022/03/03 11:34:12;;;;;;;;;;;;;;;-147.53;100.00;59759.91;5045827;28;19956;-89
2022/03/03 11:36:47;;;;;;;;;;;;;;;-147.53;100.00;59759.91;5054933;28;19913;-92
2022/03/03 11:39:31;;;;;;;;;;;;;;;-147.53;100.00;59759.91;5039203;28;19905;-88
2022/03/03 11:41:57;;;;;;;;;;;;;;;-147.53;100.00;59759.91;5027149;28;19921;-92
2022/03/03 11:44:41;;;;;;;;;;;;;;;;;;;;;
2022/03/03 11:47:33;;;;;;;;;;;;;;;-147.53;100.00;59759.91;5067701;22;20016;-93
2022/03/03 11:58:16;;;;;;;;;;;;;;;-147.53;100.00;59759.91;5011864;28;19948;-92
2022/03/03 12:06:55;;;;;;;;;;;;;;;-147.53;100.00;59759.91;5017982;28;19930;-94
2022/03/03 12:09:30;;;;;;;;;;;;;;;-147.53;100.00;59759.91;5004462;28;19909;-92
2022/03/03 12:12:19;;;;;;;;;;;;;;;-147.53;100.00;59759.91;5003630;28;19917;-91
2022/03/03 12:15:01;;;;;;;;;;;;;;;-147.53;100.00;59759.91;5007287;28;19922;-91
2022/03/03 12:17:36;;;;;;;;;;;;;;;-147.53;100.00;59759.91;5007157;28;19960;-91
2022/03/03 12:20:20;;;;;;;;;;;;;;;-147.53;100.00;59759.91;5022943;28;19921;-86
2022/03/03 12:23:10;;;;;;;;;;;;;;;-147.53;100.00;59759.91;5024209;28;19965;-91
2022/03/03 12:25:51;;;;;;;;;;;;;;;-147.53;100.00;59759.91;5025054;28;19988;-93
2022/03/03 12:28:36;;;;;;;;;;;;;;;-147.53;100.00;59759.91;5027373;28;19921;-90
2022/03/03 12:31:16;;;;;;;;;;;;;;;-147.53;100.00;59759.91;5030655;28;19933;-83
2022/03/03 12:33:53;;;;;;;;;;;;;;;-147.53;100.00;59759.91;4993969;28;20005;-84
2022/03/03 12:36:18;;;;;;;;;;;;;;;-147.53;100.00;59759.91;4991838;28;19925;-82